sensor_id;sensor_type;location;lat;lon;timestamp;temperature;humidity
16643;DHT22;8435;52.184;5.406;2023-02-04T00:00:12;11.10;99.40
16643;DHT22;8435;52.184;5.406;2023-02-04T00:02:39;11.10;99.40
16643;DHT22;8435;52.184;5.406;2023-02-04T00:05:06;11.10;99.40
16643;DHT22;8435;52.184;5.406;2023-02-04T00:07:34;11.10;99.40
16643;DHT22;8435;52.184;5.406;2023-02-04T00:10:01;11.10;99.40
16643;DHT22;8435;52.184;5.406;2023-02-04T00:12:28;11.10;99.40
16643;DHT22;8435;52.184;5.406;2023-02-04T00:14:54;11.10;99.40
16643;DHT22;8435;52.184;5.406;2023-02-04T00:17:23;11.10;99.50
16643;DHT22;8435;52.184;5.406;2023-02-04T00:19:49;11.10;99.50
16643;DHT22;8435;52.184;5.406;2023-02-04T00:22:16;11.10;99.50
16643;DHT22;8435;52.184;5.406;2023-02-04T00:24:43;11.10;99.50
16643;DHT22;8435;52.184;5.406;2023-02-04T00:27:14;11.10;99.40
16643;DHT22;8435;52.184;5.406;2023-02-04T00:29:41;11.10;99.50
16643;DHT22;8435;52.184;5.406;2023-02-04T00:32:08;11.10;99.50
16643;DHT22;8435;52.184;5.406;2023-02-04T00:34:36;11.10;99.60
16643;DHT22;8435;52.184;5.406;2023-02-04T00:37:03;11.10;99.50
16643;DHT22;8435;52.184;5.406;2023-02-04T00:39:33;11.10;99.60
16643;DHT22;8435;52.184;5.406;2023-02-04T00:42:02;11.10;99.60
16643;DHT22;8435;52.184;5.406;2023-02-04T00:44:30;11.10;99.70
16643;DHT22;8435;52.184;5.406;2023-02-04T00:46:57;11.10;99.70
16643;DHT22;8435;52.184;5.406;2023-02-04T00:49:23;11.10;99.70
16643;DHT22;8435;52.184;5.406;2023-02-04T00:51:51;11.10;99.80
16643;DHT22;8435;52.184;5.406;2023-02-04T00:54:18;11.10;99.70
16643;DHT22;8435;52.184;5.406;2023-02-04T00:56:45;11.10;99.80
16643;DHT22;8435;52.184;5.406;2023-02-04T00:59:12;11.10;99.80
16643;DHT22;8435;52.184;5.406;2023-02-04T07:28:03;6.10;99.90
16643;DHT22;8435;52.184;5.406;2023-02-04T07:30:30;7.70;99.90
16643;DHT22;8435;52.184;5.406;2023-02-04T07:32:58;7.90;99.90
16643;DHT22;8435;52.184;5.406;2023-02-04T07:35:24;8.20;99.90
16643;DHT22;8435;52.184;5.406;2023-02-04T07:37:51;8.30;99.90
16643;DHT22;8435;52.184;5.406;2023-02-04T07:40:19;8.50;99.90
16643;DHT22;8435;52.184;5.406;2023-02-04T07:42:46;8.60;99.90
16643;DHT22;8435;52.184;5.406;2023-02-04T07:45:15;8.70;99.90
16643;DHT22;8435;52.184;5.406;2023-02-04T07:47:41;8.80;99.90
16643;DHT22;8435;52.184;5.406;2023-02-04T07:50:08;8.90;99.90
16643;DHT22;8435;52.184;5.406;2023-02-04T07:52:35;9.00;99.90
16643;DHT22;8435;52.184;5.406;2023-02-04T07:55:03;9.00;99.90
16643;DHT22;8435;52.184;5.406;2023-02-04T07:57:36;9.10;99.90
16643;DHT22;8435;52.184;5.406;2023-02-04T08:00:04;9.20;99.90
16643;DHT22;8435;52.184;5.406;2023-02-04T08:02:32;9.30;99.90
16643;DHT22;8435;52.184;5.406;2023-02-04T08:04:59;9.30;99.90
16643;DHT22;8435;52.184;5.406;2023-02-04T08:07:26;9.40;99.90
16643;DHT22;8435;52.184;5.406;2023-02-04T08:09:53;9.40;99.90
16643;DHT22;8435;52.184;5.406;2023-02-04T08:12:20;9.40;99.90
16643;DHT22;8435;52.184;5.406;2023-02-04T08:14:47;9.50;99.90
16643;DHT22;8435;52.184;5.406;2023-02-04T08:17:14;9.60;99.90
16643;DHT22;8435;52.184;5.406;2023-02-04T08:19:42;9.60;99.90
16643;DHT22;8435;52.184;5.406;2023-02-04T08:22:08;9.60;99.90
16643;DHT22;8435;52.184;5.406;2023-02-04T08:24:36;9.70;99.90
16643;DHT22;8435;52.184;5.406;2023-02-04T08:27:03;9.70;99.90
16643;DHT22;8435;52.184;5.406;2023-02-04T08:29:30;9.70;99.90
16643;DHT22;8435;52.184;5.406;2023-02-04T08:31:57;9.80;99.90
16643;DHT22;8435;52.184;5.406;2023-02-04T08:34:24;9.80;99.90
16643;DHT22;8435;52.184;5.406;2023-02-04T08:36:52;9.90;99.90
16643;DHT22;8435;52.184;5.406;2023-02-04T08:39:19;9.90;99.90
16643;DHT22;8435;52.184;5.406;2023-02-04T08:41:45;10.00;99.90
16643;DHT22;8435;52.184;5.406;2023-02-04T08:44:13;10.00;99.90
16643;DHT22;8435;52.184;5.406;2023-02-04T08:46:40;10.00;99.90
16643;DHT22;8435;52.184;5.406;2023-02-04T08:49:07;10.10;99.90
16643;DHT22;8435;52.184;5.406;2023-02-04T08:51:34;10.10;99.90
16643;DHT22;8435;52.184;5.406;2023-02-04T08:54:02;10.10;99.90
16643;DHT22;8435;52.184;5.406;2023-02-04T08:56:29;10.20;99.90
16643;DHT22;8435;52.184;5.406;2023-02-04T08:58:56;10.20;99.90
16643;DHT22;8435;52.184;5.406;2023-02-04T09:01:22;10.30;99.90
16643;DHT22;8435;52.184;5.406;2023-02-04T09:03:49;10.30;99.90
16643;DHT22;8435;52.184;5.406;2023-02-04T09:06:16;10.40;99.90
16643;DHT22;8435;52.184;5.406;2023-02-04T09:08:43;10.40;99.90
16643;DHT22;8435;52.184;5.406;2023-02-04T09:11:11;10.50;99.90
16643;DHT22;8435;52.184;5.406;2023-02-04T09:13:38;10.50;99.90
16643;DHT22;8435;52.184;5.406;2023-02-04T09:16:05;10.50;99.90
16643;DHT22;8435;52.184;5.406;2023-02-04T09:18:32;10.60;99.90
16643;DHT22;8435;52.184;5.406;2023-02-04T09:20:59;10.60;99.90
16643;DHT22;8435;52.184;5.406;2023-02-04T09:23:25;10.70;99.90
16643;DHT22;8435;52.184;5.406;2023-02-04T09:25:53;10.70;99.90
16643;DHT22;8435;52.184;5.406;2023-02-04T09:28:21;10.80;99.90
16643;DHT22;8435;52.184;5.406;2023-02-04T09:30:47;10.80;99.90
16643;DHT22;8435;52.184;5.406;2023-02-04T09:33:15;10.90;99.90
16643;DHT22;8435;52.184;5.406;2023-02-04T09:35:42;10.90;99.90
16643;DHT22;8435;52.184;5.406;2023-02-04T09:38:08;11.00;99.90
16643;DHT22;8435;52.184;5.406;2023-02-04T09:40:41;11.10;99.90
16643;DHT22;8435;52.184;5.406;2023-02-04T09:43:19;11.10;99.90
16643;DHT22;8435;52.184;5.406;2023-02-04T09:45:48;11.10;99.90
16643;DHT22;8435;52.184;5.406;2023-02-04T09:48:15;11.20;99.90
16643;DHT22;8435;52.184;5.406;2023-02-04T09:50:42;11.20;99.90
16643;DHT22;8435;52.184;5.406;2023-02-04T09:53:12;11.30;99.90
16643;DHT22;8435;52.184;5.406;2023-02-04T09:55:44;11.30;99.90
16643;DHT22;8435;52.184;5.406;2023-02-04T09:58:16;11.40;99.90
16643;DHT22;8435;52.184;5.406;2023-02-04T10:00:43;11.50;99.90
16643;DHT22;8435;52.184;5.406;2023-02-04T10:03:14;11.50;99.90
16643;DHT22;8435;52.184;5.406;2023-02-04T10:05:42;11.60;99.90
16643;DHT22;8435;52.184;5.406;2023-02-04T10:08:12;11.70;99.90
16643;DHT22;8435;52.184;5.406;2023-02-04T10:10:39;11.70;99.90
16643;DHT22;8435;52.184;5.406;2023-02-04T10:13:14;11.70;99.90
16643;DHT22;8435;52.184;5.406;2023-02-04T10:15:42;11.80;99.90
16643;DHT22;8435;52.184;5.406;2023-02-04T10:18:14;11.80;99.90
16643;DHT22;8435;52.184;5.406;2023-02-04T10:20:42;11.80;99.90
16643;DHT22;8435;52.184;5.406;2023-02-04T10:23:09;11.90;99.90
16643;DHT22;8435;52.184;5.406;2023-02-04T10:25:36;11.90;99.90
16643;DHT22;8435;52.184;5.406;2023-02-04T10:28:03;11.90;99.90
16643;DHT22;8435;52.184;5.406;2023-02-04T10:30:37;12.00;99.90
16643;DHT22;8435;52.184;5.406;2023-02-04T10:33:13;12.10;99.90
16643;DHT22;8435;52.184;5.406;2023-02-04T10:35:44;12.10;99.90
16643;DHT22;8435;52.184;5.406;2023-02-04T10:38:11;12.10;99.90
16643;DHT22;8435;52.184;5.406;2023-02-04T10:40:40;12.20;99.90
16643;DHT22;8435;52.184;5.406;2023-02-04T10:43:08;12.20;99.90
16643;DHT22;8435;52.184;5.406;2023-02-04T10:45:36;12.20;99.90
16643;DHT22;8435;52.184;5.406;2023-02-04T10:48:04;12.30;99.90
16643;DHT22;8435;52.184;5.406;2023-02-04T10:50:33;12.30;99.90
16643;DHT22;8435;52.184;5.406;2023-02-04T10:53:01;12.30;99.90
16643;DHT22;8435;52.184;5.406;2023-02-04T10:55:46;12.30;99.90
16643;DHT22;8435;52.184;5.406;2023-02-04T10:58:16;12.30;99.90
16643;DHT22;8435;52.184;5.406;2023-02-04T11:00:44;12.30;99.90
16643;DHT22;8435;52.184;5.406;2023-02-04T11:03:15;12.20;99.90
16643;DHT22;8435;52.184;5.406;2023-02-04T11:05:44;12.30;99.90
16643;DHT22;8435;52.184;5.406;2023-02-04T11:08:20;12.30;99.90
16643;DHT22;8435;52.184;5.406;2023-02-04T11:10:49;12.30;99.90
16643;DHT22;8435;52.184;5.406;2023-02-04T11:13:22;12.20;99.90
16643;DHT22;8435;52.184;5.406;2023-02-04T11:15:54;12.20;99.90
16643;DHT22;8435;52.184;5.406;2023-02-04T11:18:43;12.20;99.90
16643;DHT22;8435;52.184;5.406;2023-02-04T11:21:20;12.20;99.90
16643;DHT22;8435;52.184;5.406;2023-02-04T11:23:49;12.20;99.90
16643;DHT22;8435;52.184;5.406;2023-02-04T11:26:19;12.20;99.90
16643;DHT22;8435;52.184;5.406;2023-02-04T11:29:09;12.20;99.90
16643;DHT22;8435;52.184;5.406;2023-02-04T11:31:58;12.20;99.90
16643;DHT22;8435;52.184;5.406;2023-02-04T11:34:27;12.30;99.90
16643;DHT22;8435;52.184;5.406;2023-02-04T11:37:09;12.30;99.90
16643;DHT22;8435;52.184;5.406;2023-02-04T11:39:38;12.30;99.90
16643;DHT22;8435;52.184;5.406;2023-02-04T11:42:18;12.30;99.90
16643;DHT22;8435;52.184;5.406;2023-02-04T11:44:53;12.30;99.90
16643;DHT22;8435;52.184;5.406;2023-02-04T11:47:23;12.30;99.90
16643;DHT22;8435;52.184;5.406;2023-02-04T11:49:56;12.30;99.90
16643;DHT22;8435;52.184;5.406;2023-02-04T11:52:27;12.30;99.90
16643;DHT22;8435;52.184;5.406;2023-02-04T11:54:55;12.30;99.90
16643;DHT22;8435;52.184;5.406;2023-02-04T11:57:37;12.30;99.90
16643;DHT22;8435;52.184;5.406;2023-02-04T12:00:04;12.30;99.90
16643;DHT22;8435;52.184;5.406;2023-02-04T12:02:40;12.30;99.90
16643;DHT22;8435;52.184;5.406;2023-02-04T12:05:10;12.30;99.90
16643;DHT22;8435;52.184;5.406;2023-02-04T12:07:41;12.40;99.90
16643;DHT22;8435;52.184;5.406;2023-02-04T12:10:23;12.40;99.90
16643;DHT22;8435;52.184;5.406;2023-02-04T12:12:52;12.50;99.90
16643;DHT22;8435;52.184;5.406;2023-02-04T12:15:30;12.50;99.90
16643;DHT22;8435;52.184;5.406;2023-02-04T12:18:01;12.40;99.90
16643;DHT22;8435;52.184;5.406;2023-02-04T12:20:28;12.50;99.90
16643;DHT22;8435;52.184;5.406;2023-02-04T12:22:56;12.60;99.90
16643;DHT22;8435;52.184;5.406;2023-02-04T12:25:23;12.60;99.90
16643;DHT22;8435;52.184;5.406;2023-02-04T12:27:51;12.60;99.90
16643;DHT22;8435;52.184;5.406;2023-02-04T12:30:19;12.60;99.90
16643;DHT22;8435;52.184;5.406;2023-02-04T12:32:46;12.60;99.90
16643;DHT22;8435;52.184;5.406;2023-02-04T12:35:13;12.60;99.90
16643;DHT22;8435;52.184;5.406;2023-02-04T12:37:40;12.60;99.90
16643;DHT22;8435;52.184;5.406;2023-02-04T12:40:12;12.70;99.90
16643;DHT22;8435;52.184;5.406;2023-02-04T12:42:42;12.70;99.90
16643;DHT22;8435;52.184;5.406;2023-02-04T12:45:10;12.60;99.90
16643;DHT22;8435;52.184;5.406;2023-02-04T12:47:37;12.70;99.90
16643;DHT22;8435;52.184;5.406;2023-02-04T12:50:04;12.70;99.90
16643;DHT22;8435;52.184;5.406;2023-02-04T12:52:31;12.80;99.90
16643;DHT22;8435;52.184;5.406;2023-02-04T12:54:58;12.80;99.90
16643;DHT22;8435;52.184;5.406;2023-02-04T12:57:27;12.80;99.90
16643;DHT22;8435;52.184;5.406;2023-02-04T12:59:53;12.80;99.90
16643;DHT22;8435;52.184;5.406;2023-02-04T13:02:24;12.90;99.90
16643;DHT22;8435;52.184;5.406;2023-02-04T13:04:51;12.80;99.90
16643;DHT22;8435;52.184;5.406;2023-02-04T13:07:18;12.90;99.90
16643;DHT22;8435;52.184;5.406;2023-02-04T13:09:46;12.90;99.90
16643;DHT22;8435;52.184;5.406;2023-02-04T13:12:13;12.90;99.90
16643;DHT22;8435;52.184;5.406;2023-02-04T13:14:42;13.00;99.80
16643;DHT22;8435;52.184;5.406;2023-02-04T13:17:09;13.00;99.80
16643;DHT22;8435;52.184;5.406;2023-02-04T13:19:36;13.00;99.90
16643;DHT22;8435;52.184;5.406;2023-02-04T13:22:03;13.00;99.90
16643;DHT22;8435;52.184;5.406;2023-02-04T13:24:30;13.00;99.80
16643;DHT22;8435;52.184;5.406;2023-02-04T13:26:57;13.00;99.70
16643;DHT22;8435;52.184;5.406;2023-02-04T13:29:24;13.00;99.50
16643;DHT22;8435;52.184;5.406;2023-02-04T13:31:55;13.00;99.50
16643;DHT22;8435;52.184;5.406;2023-02-04T13:34:22;13.00;99.70
16643;DHT22;8435;52.184;5.406;2023-02-04T13:36:48;13.00;99.60
16643;DHT22;8435;52.184;5.406;2023-02-04T13:39:15;13.00;99.60
16643;DHT22;8435;52.184;5.406;2023-02-04T13:41:42;13.00;99.40
16643;DHT22;8435;52.184;5.406;2023-02-04T13:44:09;13.00;99.30
16643;DHT22;8435;52.184;5.406;2023-02-04T13:46:35;13.00;99.60
16643;DHT22;8435;52.184;5.406;2023-02-04T13:49:04;13.00;99.70
16643;DHT22;8435;52.184;5.406;2023-02-04T13:51:30;13.00;99.80
16643;DHT22;8435;52.184;5.406;2023-02-04T13:53:57;13.00;99.80
16643;DHT22;8435;52.184;5.406;2023-02-04T13:56:25;13.00;99.80
16643;DHT22;8435;52.184;5.406;2023-02-04T13:58:52;13.10;99.80
16643;DHT22;8435;52.184;5.406;2023-02-04T14:01:18;13.10;99.90
16643;DHT22;8435;52.184;5.406;2023-02-04T14:03:45;13.10;99.90
16643;DHT22;8435;52.184;5.406;2023-02-04T14:06:13;13.20;99.90
16643;DHT22;8435;52.184;5.406;2023-02-04T14:08:45;13.20;99.60
16643;DHT22;8435;52.184;5.406;2023-02-04T14:11:11;13.30;99.50
16643;DHT22;8435;52.184;5.406;2023-02-04T14:13:38;13.30;99.40
16643;DHT22;8435;52.184;5.406;2023-02-04T14:16:05;13.30;99.30
16643;DHT22;8435;52.184;5.406;2023-02-04T14:18:33;13.30;99.40
16643;DHT22;8435;52.184;5.406;2023-02-04T14:21:00;13.30;99.40
16643;DHT22;8435;52.184;5.406;2023-02-04T14:23:28;13.40;99.40
16643;DHT22;8435;52.184;5.406;2023-02-04T14:25:55;13.30;99.10
16643;DHT22;8435;52.184;5.406;2023-02-04T14:28:22;13.30;99.00
16643;DHT22;8435;52.184;5.406;2023-02-04T14:30:48;13.40;99.10
16643;DHT22;8435;52.184;5.406;2023-02-04T14:33:15;13.30;99.00
16643;DHT22;8435;52.184;5.406;2023-02-04T14:35:42;13.30;99.10
16643;DHT22;8435;52.184;5.406;2023-02-04T14:38:09;13.30;99.00
16643;DHT22;8435;52.184;5.406;2023-02-04T14:40:39;13.30;99.00
16643;DHT22;8435;52.184;5.406;2023-02-04T14:43:06;13.30;98.90
16643;DHT22;8435;52.184;5.406;2023-02-04T14:45:35;13.30;99.00
16643;DHT22;8435;52.184;5.406;2023-02-04T14:48:02;13.30;99.00
16643;DHT22;8435;52.184;5.406;2023-02-04T14:50:29;13.30;98.90
16643;DHT22;8435;52.184;5.406;2023-02-04T14:52:56;13.30;98.90
16643;DHT22;8435;52.184;5.406;2023-02-04T14:55:23;13.30;98.90
16643;DHT22;8435;52.184;5.406;2023-02-04T14:57:52;13.20;98.90
16643;DHT22;8435;52.184;5.406;2023-02-04T15:00:19;13.20;98.90
16643;DHT22;8435;52.184;5.406;2023-02-04T15:02:46;13.10;98.70
16643;DHT22;8435;52.184;5.406;2023-02-04T15:05:13;13.10;98.70
16643;DHT22;8435;52.184;5.406;2023-02-04T15:07:40;13.10;98.80
16643;DHT22;8435;52.184;5.406;2023-02-04T15:10:09;13.10;98.80
16643;DHT22;8435;52.184;5.406;2023-02-04T15:12:42;13.00;98.90
16643;DHT22;8435;52.184;5.406;2023-02-04T15:15:10;13.00;99.00
16643;DHT22;8435;52.184;5.406;2023-02-04T15:17:37;12.90;99.10
16643;DHT22;8435;52.184;5.406;2023-02-04T15:20:04;12.90;99.10
16643;DHT22;8435;52.184;5.406;2023-02-04T15:22:32;12.90;99.20
16643;DHT22;8435;52.184;5.406;2023-02-04T15:24:59;12.90;99.30
16643;DHT22;8435;52.184;5.406;2023-02-04T15:27:26;12.90;99.30
16643;DHT22;8435;52.184;5.406;2023-02-04T15:29:53;12.80;99.20
16643;DHT22;8435;52.184;5.406;2023-02-04T15:32:21;12.80;99.20
16643;DHT22;8435;52.184;5.406;2023-02-04T15:34:48;12.80;99.30
16643;DHT22;8435;52.184;5.406;2023-02-04T15:37:15;12.80;99.30
16643;DHT22;8435;52.184;5.406;2023-02-04T15:39:41;12.80;99.50
16643;DHT22;8435;52.184;5.406;2023-02-04T15:42:09;12.80;99.30
16643;DHT22;8435;52.184;5.406;2023-02-04T15:44:36;12.70;99.40
16643;DHT22;8435;52.184;5.406;2023-02-04T15:47:03;12.70;99.50
16643;DHT22;8435;52.184;5.406;2023-02-04T15:49:31;12.70;99.50
16643;DHT22;8435;52.184;5.406;2023-02-04T15:51:58;12.70;99.50
16643;DHT22;8435;52.184;5.406;2023-02-04T15:54:25;12.70;99.40
16643;DHT22;8435;52.184;5.406;2023-02-04T15:56:51;12.60;99.40
16643;DHT22;8435;52.184;5.406;2023-02-04T15:59:18;12.60;99.40
16643;DHT22;8435;52.184;5.406;2023-02-04T16:01:45;12.60;99.40
16643;DHT22;8435;52.184;5.406;2023-02-04T16:04:12;12.50;99.60
16643;DHT22;8435;52.184;5.406;2023-02-04T16:06:40;12.50;99.60
16643;DHT22;8435;52.184;5.406;2023-02-04T16:09:07;12.40;99.70
16643;DHT22;8435;52.184;5.406;2023-02-04T16:11:33;12.40;99.60
16643;DHT22;8435;52.184;5.406;2023-02-04T16:14:02;12.40;99.60
16643;DHT22;8435;52.184;5.406;2023-02-04T16:16:29;12.30;99.50
16643;DHT22;8435;52.184;5.406;2023-02-04T16:18:55;12.30;99.50
16643;DHT22;8435;52.184;5.406;2023-02-04T16:21:22;12.30;99.60
16643;DHT22;8435;52.184;5.406;2023-02-04T16:23:51;12.20;99.70
16643;DHT22;8435;52.184;5.406;2023-02-04T16:26:17;12.20;99.70
16643;DHT22;8435;52.184;5.406;2023-02-04T16:28:44;12.20;99.80
16643;DHT22;8435;52.184;5.406;2023-02-04T16:31:12;12.10;99.70
16643;DHT22;8435;52.184;5.406;2023-02-04T16:33:39;12.10;99.80
16643;DHT22;8435;52.184;5.406;2023-02-04T16:36:08;12.10;99.90
16643;DHT22;8435;52.184;5.406;2023-02-04T16:38:37;12.10;99.90
16643;DHT22;8435;52.184;5.406;2023-02-04T16:41:06;12.10;99.90
16643;DHT22;8435;52.184;5.406;2023-02-04T16:43:33;12.00;99.90
16643;DHT22;8435;52.184;5.406;2023-02-04T16:46:00;12.00;99.90
16643;DHT22;8435;52.184;5.406;2023-02-04T16:48:27;12.00;99.90
16643;DHT22;8435;52.184;5.406;2023-02-04T16:50:54;12.00;99.90
16643;DHT22;8435;52.184;5.406;2023-02-04T16:53:21;12.00;99.90
16643;DHT22;8435;52.184;5.406;2023-02-04T16:55:48;12.00;99.90
16643;DHT22;8435;52.184;5.406;2023-02-04T16:58:16;12.00;99.90
16643;DHT22;8435;52.184;5.406;2023-02-04T17:00:44;12.00;99.90
16643;DHT22;8435;52.184;5.406;2023-02-04T17:03:11;12.00;99.90
16643;DHT22;8435;52.184;5.406;2023-02-04T17:05:38;11.90;99.90
16643;DHT22;8435;52.184;5.406;2023-02-04T17:08:06;11.90;99.90
16643;DHT22;8435;52.184;5.406;2023-02-04T17:10:33;11.90;99.90
16643;DHT22;8435;52.184;5.406;2023-02-04T17:13:18;11.80;99.90
16643;DHT22;8435;52.184;5.406;2023-02-04T17:15:45;11.80;99.90
16643;DHT22;8435;52.184;5.406;2023-02-04T17:18:12;11.80;99.90
16643;DHT22;8435;52.184;5.406;2023-02-04T17:20:39;11.70;99.90
16643;DHT22;8435;52.184;5.406;2023-02-04T17:23:06;11.70;99.90
16643;DHT22;8435;52.184;5.406;2023-02-04T17:25:33;11.60;99.90
16643;DHT22;8435;52.184;5.406;2023-02-04T17:27:59;11.60;99.90
16643;DHT22;8435;52.184;5.406;2023-02-04T17:30:28;11.60;99.90
16643;DHT22;8435;52.184;5.406;2023-02-04T17:32:54;11.50;99.90
16643;DHT22;8435;52.184;5.406;2023-02-04T17:35:21;11.50;99.90
16643;DHT22;8435;52.184;5.406;2023-02-04T17:37:48;11.50;99.90
16643;DHT22;8435;52.184;5.406;2023-02-04T17:40:15;11.50;99.90
16643;DHT22;8435;52.184;5.406;2023-02-04T17:42:42;11.40;99.90
16643;DHT22;8435;52.184;5.406;2023-02-04T17:45:10;11.40;99.90
16643;DHT22;8435;52.184;5.406;2023-02-04T17:47:38;11.40;99.90
16643;DHT22;8435;52.184;5.406;2023-02-04T17:50:07;11.30;99.90
16643;DHT22;8435;52.184;5.406;2023-02-04T17:52:35;11.30;99.90
16643;DHT22;8435;52.184;5.406;2023-02-04T17:55:08;11.30;99.90
16643;DHT22;8435;52.184;5.406;2023-02-04T17:57:38;11.30;99.90
16643;DHT22;8435;52.184;5.406;2023-02-04T18:00:11;11.30;99.90
16643;DHT22;8435;52.184;5.406;2023-02-04T18:02:40;11.20;99.90
16643;DHT22;8435;52.184;5.406;2023-02-04T18:05:12;11.30;99.90
16643;DHT22;8435;52.184;5.406;2023-02-04T18:07:45;11.30;99.90
16643;DHT22;8435;52.184;5.406;2023-02-04T18:10:21;11.30;99.90
16643;DHT22;8435;52.184;5.406;2023-02-04T18:12:48;11.20;99.90
16643;DHT22;8435;52.184;5.406;2023-02-04T18:15:23;11.20;99.90
16643;DHT22;8435;52.184;5.406;2023-02-04T18:17:57;11.20;99.90
16643;DHT22;8435;52.184;5.406;2023-02-04T18:20:24;11.20;99.90
16643;DHT22;8435;52.184;5.406;2023-02-04T18:22:56;11.20;99.90
16643;DHT22;8435;52.184;5.406;2023-02-04T18:25:26;11.20;99.90
16643;DHT22;8435;52.184;5.406;2023-02-04T18:27:53;11.30;99.90
16643;DHT22;8435;52.184;5.406;2023-02-04T18:30:22;11.20;99.90
16643;DHT22;8435;52.184;5.406;2023-02-04T18:32:52;11.20;99.90
16643;DHT22;8435;52.184;5.406;2023-02-04T18:38:26;11.20;99.90
16643;DHT22;8435;52.184;5.406;2023-02-04T18:40:58;11.20;99.90
16643;DHT22;8435;52.184;5.406;2023-02-04T18:43:27;11.20;99.90
16643;DHT22;8435;52.184;5.406;2023-02-04T18:45:57;11.20;99.90
16643;DHT22;8435;52.184;5.406;2023-02-04T18:49:02;11.20;99.90
16643;DHT22;8435;52.184;5.406;2023-02-04T18:51:32;11.20;99.90
16643;DHT22;8435;52.184;5.406;2023-02-04T18:54:14;11.20;99.90
16643;DHT22;8435;52.184;5.406;2023-02-04T18:56:47;11.20;99.90
16643;DHT22;8435;52.184;5.406;2023-02-04T18:59:15;11.20;99.90
16643;DHT22;8435;52.184;5.406;2023-02-04T19:01:43;11.20;99.90
16643;DHT22;8435;52.184;5.406;2023-02-04T19:04:19;11.20;99.90
16643;DHT22;8435;52.184;5.406;2023-02-04T19:06:46;11.20;99.90
16643;DHT22;8435;52.184;5.406;2023-02-04T19:09:19;11.20;99.90
16643;DHT22;8435;52.184;5.406;2023-02-04T19:11:51;11.20;99.90
16643;DHT22;8435;52.184;5.406;2023-02-04T19:14:22;11.20;99.90
16643;DHT22;8435;52.184;5.406;2023-02-04T19:16:51;11.20;99.90
16643;DHT22;8435;52.184;5.406;2023-02-04T19:19:35;11.20;99.90
16643;DHT22;8435;52.184;5.406;2023-02-04T19:22:15;11.20;99.90
16643;DHT22;8435;52.184;5.406;2023-02-04T19:24:45;11.20;99.90
16643;DHT22;8435;52.184;5.406;2023-02-04T19:27:25;11.20;99.90
16643;DHT22;8435;52.184;5.406;2023-02-04T19:29:55;11.20;99.90
16643;DHT22;8435;52.184;5.406;2023-02-04T19:32:41;11.20;99.90
16643;DHT22;8435;52.184;5.406;2023-02-04T19:35:21;11.20;99.90
16643;DHT22;8435;52.184;5.406;2023-02-04T19:37:52;11.10;99.90
16643;DHT22;8435;52.184;5.406;2023-02-04T19:40:26;11.10;99.90
16643;DHT22;8435;52.184;5.406;2023-02-04T19:42:54;11.10;99.90
16643;DHT22;8435;52.184;5.406;2023-02-04T19:45:23;11.10;99.90
16643;DHT22;8435;52.184;5.406;2023-02-04T19:47:52;11.00;99.90
16643;DHT22;8435;52.184;5.406;2023-02-04T19:50:27;11.00;99.90
16643;DHT22;8435;52.184;5.406;2023-02-04T19:52:58;11.00;99.90
16643;DHT22;8435;52.184;5.406;2023-02-04T19:55:32;11.00;99.90
16643;DHT22;8435;52.184;5.406;2023-02-04T19:58:02;11.00;99.90
16643;DHT22;8435;52.184;5.406;2023-02-04T20:00:58;11.00;99.90
16643;DHT22;8435;52.184;5.406;2023-02-04T20:03:35;11.00;99.90
16643;DHT22;8435;52.184;5.406;2023-02-04T20:06:31;11.00;99.90
16643;DHT22;8435;52.184;5.406;2023-02-04T20:09:00;11.00;99.90
16643;DHT22;8435;52.184;5.406;2023-02-04T20:11:34;11.00;99.90
16643;DHT22;8435;52.184;5.406;2023-02-04T20:14:26;10.90;99.90
16643;DHT22;8435;52.184;5.406;2023-02-04T20:16:55;10.90;99.90
16643;DHT22;8435;52.184;5.406;2023-02-04T20:19:27;10.90;99.90
16643;DHT22;8435;52.184;5.406;2023-02-04T20:24:42;10.90;99.90
16643;DHT22;8435;52.184;5.406;2023-02-04T20:27:18;10.80;99.90
16643;DHT22;8435;52.184;5.406;2023-02-04T20:29:45;10.80;99.90
16643;DHT22;8435;52.184;5.406;2023-02-04T20:32:16;10.80;99.90
16643;DHT22;8435;52.184;5.406;2023-02-04T20:34:44;10.70;99.90
16643;DHT22;8435;52.184;5.406;2023-02-04T20:37:15;10.80;99.90
16643;DHT22;8435;52.184;5.406;2023-02-04T20:39:44;10.70;99.90
16643;DHT22;8435;52.184;5.406;2023-02-04T20:42:33;10.70;99.90
16643;DHT22;8435;52.184;5.406;2023-02-04T20:45:25;10.70;99.90
16643;DHT22;8435;52.184;5.406;2023-02-04T20:47:58;10.70;99.90
16643;DHT22;8435;52.184;5.406;2023-02-04T20:50:43;10.70;99.90
16643;DHT22;8435;52.184;5.406;2023-02-04T20:53:34;10.70;99.90
16643;DHT22;8435;52.184;5.406;2023-02-04T20:56:09;10.70;99.90
16643;DHT22;8435;52.184;5.406;2023-02-04T20:58:41;10.70;99.90
16643;DHT22;8435;52.184;5.406;2023-02-04T21:01:18;10.70;99.90
16643;DHT22;8435;52.184;5.406;2023-02-04T21:03:46;10.70;99.90
16643;DHT22;8435;52.184;5.406;2023-02-04T21:06:20;10.70;99.90
16643;DHT22;8435;52.184;5.406;2023-02-04T21:08:51;10.60;99.90
16643;DHT22;8435;52.184;5.406;2023-02-04T21:11:21;10.60;99.90
16643;DHT22;8435;52.184;5.406;2023-02-04T21:13:53;10.60;99.90
16643;DHT22;8435;52.184;5.406;2023-02-04T21:16:20;10.60;99.90
16643;DHT22;8435;52.184;5.406;2023-02-04T21:18:49;10.60;99.90
16643;DHT22;8435;52.184;5.406;2023-02-04T21:21:18;10.60;99.90
16643;DHT22;8435;52.184;5.406;2023-02-04T21:23:47;10.60;99.90
16643;DHT22;8435;52.184;5.406;2023-02-04T21:26:15;10.60;99.90
16643;DHT22;8435;52.184;5.406;2023-02-04T21:28:42;10.70;99.90
16643;DHT22;8435;52.184;5.406;2023-02-04T21:31:09;10.70;99.90
16643;DHT22;8435;52.184;5.406;2023-02-04T21:33:36;10.70;99.90
16643;DHT22;8435;52.184;5.406;2023-02-04T21:36:03;10.70;99.90
16643;DHT22;8435;52.184;5.406;2023-02-04T21:38:30;10.60;99.90
16643;DHT22;8435;52.184;5.406;2023-02-04T21:41:00;10.70;99.90
16643;DHT22;8435;52.184;5.406;2023-02-04T21:43:28;10.60;99.90
16643;DHT22;8435;52.184;5.406;2023-02-04T21:45:55;10.70;99.90
16643;DHT22;8435;52.184;5.406;2023-02-04T21:48:24;10.70;99.90
16643;DHT22;8435;52.184;5.406;2023-02-04T21:50:54;10.70;99.90
16643;DHT22;8435;52.184;5.406;2023-02-04T21:53:21;10.70;99.90
16643;DHT22;8435;52.184;5.406;2023-02-04T21:55:48;10.70;99.90
16643;DHT22;8435;52.184;5.406;2023-02-04T21:58:15;10.70;99.90
16643;DHT22;8435;52.184;5.406;2023-02-04T22:00:43;10.70;99.90
16643;DHT22;8435;52.184;5.406;2023-02-04T22:03:10;10.70;99.90
16643;DHT22;8435;52.184;5.406;2023-02-04T22:05:40;10.70;99.90
16643;DHT22;8435;52.184;5.406;2023-02-04T22:08:09;10.70;99.90
16643;DHT22;8435;52.184;5.406;2023-02-04T22:10:38;10.60;99.90
16643;DHT22;8435;52.184;5.406;2023-02-04T22:13:05;10.70;99.90
16643;DHT22;8435;52.184;5.406;2023-02-04T22:15:32;10.70;99.90
16643;DHT22;8435;52.184;5.406;2023-02-04T22:18:00;10.70;99.90
16643;DHT22;8435;52.184;5.406;2023-02-04T22:20:27;10.60;99.90
16643;DHT22;8435;52.184;5.406;2023-02-04T22:22:55;10.70;99.90
16643;DHT22;8435;52.184;5.406;2023-02-04T22:25:26;10.60;99.90
16643;DHT22;8435;52.184;5.406;2023-02-04T22:27:53;10.60;99.90
16643;DHT22;8435;52.184;5.406;2023-02-04T22:30:20;10.60;99.90
16643;DHT22;8435;52.184;5.406;2023-02-04T22:32:47;10.70;99.90